Gijon, Spain
Current Conditions -  °F | °C
As of 11:30 PM on Sunday 23 Nov 2014 (Local Time) from LEAS Reporting Station
Light Rain Light Rain  
Wind Chill: 55°   Ceiling: 1200
Heat Index: 55°   Visibility: 4mi
Dew Point: 55°   Wind: 2mph
Humidity: 100%   Direction: NA
Pressure: 30.06"   Gusts: NA
Location:  43.55°N, 5.66°W
Report Text: LEAS 232230Z VRB02KT 6000 -RA FEW006 BKN012 13/13 Q1018 TEMPO 1200 RA
Loading
Personal Weather Stations






























Interactive Weather Map New forecast layout! Learn more

10-Day Weather Forecast

Advertisements
Track Severe Weather on mobile